createdAt,value
2022-10-11T00:01:04.640Z,102035.00
2022-10-11T00:03:33.176Z,102035.06
2022-10-11T00:06:03.679Z,102042.28
2022-10-11T00:08:32.619Z,102053.84
2022-10-11T00:11:02.466Z,102044.63
2022-10-11T00:13:32.479Z,102043.13
2022-10-11T00:16:01.227Z,102052.38
2022-10-11T00:18:29.874Z,102053.63
2022-10-11T00:21:06.311Z,102055.34
2022-10-11T00:23:35.289Z,102057.75
2022-10-11T00:26:07.467Z,102058.19
2022-10-11T00:28:38.872Z,102060.34
2022-10-11T00:31:09.276Z,102068.25
2022-10-11T00:33:37.967Z,102068.31
2022-10-11T00:36:07.607Z,102071.28
2022-10-11T00:38:36.670Z,102067.63
2022-10-11T00:41:05.277Z,102065.53
2022-10-11T00:43:34.215Z,102061.50
2022-10-11T00:46:30.440Z,102071.78
2022-10-11T00:49:05.715Z,102074.75
2022-10-11T00:51:48.742Z,102076.69
2022-10-11T00:54:19.936Z,102079.06
2022-10-11T00:56:53.859Z,102075.19
2022-10-11T00:59:27.411Z,102083.13
2022-10-11T01:01:57.576Z,102079.09
2022-10-11T01:04:26.113Z,102081.47
2022-10-11T01:06:55.788Z,102082.72
2022-10-11T01:09:24.292Z,102084.25
2022-10-11T01:11:54.826Z,102081.47
2022-10-11T01:14:52.985Z,102085.53
2022-10-11T01:17:32.701Z,102088.75
2022-10-11T01:20:24.970Z,102083.06
2022-10-11T01:23:24.063Z,102095.84
2022-10-11T01:26:09.658Z,102087.50
2022-10-11T01:28:50.317Z,102090.53
2022-10-11T01:31:26.748Z,102080.06
2022-10-11T01:34:00.585Z,102086.31
2022-10-11T01:36:33.120Z,102088.41
2022-10-11T01:39:05.666Z,102089.06
2022-10-11T01:41:39.989Z,102088.66
2022-10-11T01:44:09.437Z,102086.34
2022-10-11T01:46:39.386Z,102087.19
2022-10-11T01:49:08.274Z,102092.53
2022-10-11T01:51:44.046Z,102095.06
2022-10-11T01:55:04.403Z,102090.81
2022-10-11T01:58:00.748Z,102090.00
2022-10-11T02:00:33.991Z,102096.81
2022-10-11T02:03:27.094Z,102093.63
2022-10-11T02:06:03.267Z,102095.13
2022-10-11T02:08:40.033Z,102101.81
2022-10-11T02:11:16.632Z,102094.34
2022-10-11T02:13:52.020Z,102099.00
2022-10-11T02:16:24.505Z,102096.03
2022-10-11T02:18:55.666Z,102098.59
2022-10-11T02:21:25.730Z,102096.47
2022-10-11T02:23:58.105Z,102103.94
2022-10-11T02:26:29.622Z,102104.59
2022-10-11T02:29:02.258Z,102112.50
2022-10-11T02:31:33.497Z,102107.75
2022-10-11T02:34:11.055Z,102105.22
2022-10-11T02:36:46.775Z,102113.34
2022-10-11T02:39:19.929Z,102119.53
2022-10-11T02:41:51.308Z,102116.34
2022-10-11T02:44:27.882Z,102119.97
2022-10-11T02:46:56.859Z,102132.13
2022-10-11T02:49:27.704Z,102119.53
2022-10-11T02:51:57.072Z,102121.06
2022-10-11T02:54:25.806Z,102125.56
2022-10-11T02:56:54.280Z,102121.28
2022-10-11T02:59:22.755Z,102128.97
2022-10-11T03:01:51.330Z,102127.91
2022-10-11T03:04:19.873Z,102125.16
2022-10-11T03:06:49.696Z,102131.75
2022-10-11T03:09:18.564Z,102132.59
2022-10-11T03:11:47.080Z,102132.41
2022-10-11T03:14:15.554Z,102131.75
2022-10-11T03:16:44.040Z,102136.03
2022-10-11T03:19:16.894Z,102134.72
2022-10-11T03:21:48.902Z,102138.34
2022-10-11T03:24:17.375Z,102132.59
2022-10-11T03:26:45.858Z,102136.84
2022-10-11T03:29:14.362Z,102139.84
2022-10-11T03:31:42.815Z,102144.56
2022-10-11T03:34:11.290Z,102144.75
2022-10-11T03:36:39.768Z,102143.50
2022-10-11T03:39:09.680Z,102147.09
2022-10-11T03:41:38.164Z,102146.91
2022-10-11T03:44:06.629Z,102150.31
2022-10-11T03:46:35.168Z,102148.81
2022-10-11T03:49:03.716Z,102159.69
2022-10-11T03:51:32.330Z,102157.97
2022-10-11T03:54:00.827Z,102157.75
2022-10-11T03:56:30.651Z,102159.44
2022-10-11T03:58:59.191Z,102166.28
2022-10-11T04:01:27.719Z,102168.00
2022-10-11T04:03:57.892Z,102172.88
2022-10-11T04:06:26.397Z,102175.44
2022-10-11T04:08:54.898Z,102175.63
2022-10-11T04:11:23.536Z,102174.59
2022-10-11T04:13:54.093Z,102178.84
2022-10-11T04:16:22.563Z,102183.34
2022-10-11T04:18:51.063Z,102179.91
2022-10-11T04:21:19.537Z,102182.91
2022-10-11T04:23:48.045Z,102190.16
2022-10-11T04:26:16.504Z,102188.88
2022-10-11T04:28:45.029Z,102191.44
2022-10-11T04:31:14.878Z,102187.81
2022-10-11T04:33:43.449Z,102185.88
2022-10-11T04:36:11.943Z,102195.28
2022-10-11T04:38:40.504Z,102188.47
2022-10-11T04:41:10.377Z,102192.28
2022-10-11T04:43:39.006Z,102193.13
2022-10-11T04:46:08.625Z,102190.56
2022-10-11T04:48:38.848Z,102192.69
2022-10-11T04:51:07.655Z,102197.78
2022-10-11T04:53:36.134Z,102193.09
2022-10-11T04:56:07.928Z,102196.94
2022-10-11T04:58:37.123Z,102202.09
2022-10-11T05:01:06.206Z,102199.94
2022-10-11T05:03:35.048Z,102200.78
2022-10-11T05:06:06.296Z,102203.56
2022-10-11T05:08:35.033Z,102199.06
2022-10-11T05:11:05.389Z,102198.63
2022-10-11T05:13:35.224Z,102202.47
2022-10-11T05:16:08.244Z,102211.84
2022-10-11T05:18:39.401Z,102217.78
2022-10-11T05:21:10.634Z,102203.94
2022-10-11T05:23:39.086Z,102205.00
2022-10-11T05:26:08.243Z,102209.25
2022-10-11T05:28:37.036Z,102220.13
2022-10-11T05:31:05.863Z,102215.53
2022-10-11T05:33:35.261Z,102222.75
2022-10-11T05:36:04.571Z,102229.78
2022-10-11T05:38:34.560Z,102227.13
2022-10-11T05:41:04.336Z,102229.50
2022-10-11T05:43:33.092Z,102228.22
2022-10-11T05:46:01.916Z,102228.19
2022-10-11T05:48:30.592Z,102242.91
2022-10-11T05:51:03.276Z,102240.34
2022-10-11T05:53:34.079Z,102236.31
2022-10-11T05:56:02.826Z,102244.19
2022-10-11T05:58:31.593Z,102248.66
2022-10-11T06:01:00.133Z,102248.25
2022-10-11T06:03:28.716Z,102248.88
2022-10-11T06:05:57.508Z,102256.09
2022-10-11T06:08:26.004Z,102255.03
2022-10-11T06:10:55.886Z,102257.59
2022-10-11T06:13:24.369Z,102258.63
2022-10-11T06:15:52.841Z,102267.19
2022-10-11T06:18:21.296Z,102265.28
2022-10-11T06:20:49.791Z,102259.72
2022-10-11T06:23:18.220Z,102261.84
2022-10-11T06:25:57.614Z,102266.78
2022-10-11T06:28:26.420Z,102274.66
2022-10-11T06:30:55.047Z,102272.50
2022-10-11T06:33:23.958Z,102272.31
2022-10-11T06:35:57.640Z,102271.06
2022-10-11T06:38:26.246Z,102277.84
2022-10-11T06:40:54.841Z,102279.97
2022-10-11T06:43:25.353Z,102281.91
2022-10-11T06:45:53.851Z,102284.03
2022-10-11T06:48:22.315Z,102289.41
2022-10-11T06:51:00.803Z,102292.16
2022-10-11T06:53:29.929Z,102285.44
2022-10-11T06:56:04.307Z,102294.88
2022-10-11T06:58:34.453Z,102308.13
2022-10-11T07:01:03.462Z,102307.28
2022-10-11T07:03:32.582Z,102305.81
2022-10-11T07:06:06.139Z,102312.22
2022-10-11T07:08:34.953Z,102310.91
2022-10-11T07:11:04.795Z,102315.84
2022-10-11T07:13:34.652Z,102322.53
2022-10-11T07:16:04.083Z,102325.56
2022-10-11T07:18:33.376Z,102324.16
2022-10-11T07:21:05.091Z,102324.34
2022-10-11T07:23:33.845Z,102331.75
2022-10-11T07:26:02.996Z,102329.81
2022-10-11T07:28:33.177Z,102332.44
2022-10-11T07:31:06.463Z,102336.44
2022-10-11T07:33:34.956Z,102341.34
2022-10-11T07:36:04.574Z,102341.50
2022-10-11T07:38:33.418Z,102338.22
2022-10-11T07:41:06.396Z,102348.19
2022-10-11T07:43:36.880Z,102343.84
2022-10-11T07:46:06.175Z,102346.22
2022-10-11T07:48:36.083Z,102340.13
2022-10-11T07:51:06.720Z,102344.31
2022-10-11T07:53:40.648Z,102332.13
2022-10-11T07:56:09.869Z,102343.66
2022-10-11T07:58:39.760Z,102340.56
2022-10-11T08:01:09.732Z,102328.09
2022-10-11T08:03:38.981Z,102335.19
2022-10-11T08:06:10.034Z,102341.88
2022-10-11T08:08:39.296Z,102328.78
2022-10-11T08:11:08.219Z,102336.97
2022-10-11T08:13:38.376Z,102331.94
2022-10-11T08:16:14.011Z,102337.47
2022-10-11T08:18:42.470Z,102342.59
2022-10-11T08:21:12.007Z,102339.25
2022-10-11T08:23:40.733Z,102343.91
2022-10-11T08:26:09.850Z,102343.44
2022-10-11T08:28:40.080Z,102345.22
2022-10-11T08:31:08.851Z,102347.34
2022-10-11T08:33:37.326Z,102343.34
2022-10-11T08:36:07.460Z,102346.72
2022-10-11T08:38:38.412Z,102362.47
2022-10-11T08:41:24.796Z,102353.31
2022-10-11T08:44:02.610Z,102357.16
2022-10-11T08:46:35.097Z,102357.25
2022-10-11T08:49:04.141Z,102356.34
2022-10-11T08:51:36.627Z,102349.03
2022-10-11T08:54:11.936Z,102352.06
2022-10-11T08:56:43.282Z,102354.16
2022-10-11T08:59:27.673Z,102358.66
2022-10-11T09:02:05.049Z,102367.59
2022-10-11T09:04:33.598Z,102368.06
2022-10-11T09:07:08.760Z,102371.81
2022-10-11T09:10:04.631Z,102370.50
2022-10-11T09:12:43.813Z,102364.81
2022-10-11T09:15:21.625Z,102367.97
2022-10-11T09:18:13.672Z,102367.19
2022-10-11T09:20:52.944Z,102369.81
2022-10-11T09:23:40.166Z,102375.13
2022-10-11T09:26:12.650Z,102365.22
2022-10-11T09:28:57.316Z,102367.78
2022-10-11T09:31:30.662Z,102363.03
2022-10-11T09:34:07.040Z,102366.69
2022-10-11T09:36:42.221Z,102364.09
2022-10-11T09:39:25.971Z,102365.22
2022-10-11T09:41:59.790Z,102369.91
2022-10-11T09:44:30.745Z,102371.06
2022-10-11T09:47:00.855Z,102376.22
2022-10-11T09:49:32.981Z,102369.81
2022-10-11T09:52:04.247Z,102369.22
2022-10-11T09:54:40.987Z,102362.44
2022-10-11T09:57:24.049Z,102369.06
2022-10-11T10:00:05.945Z,102369.38
2022-10-11T10:02:43.856Z,102372.09
2022-10-11T10:05:19.117Z,102375.13
2022-10-11T10:08:23.054Z,102375.09
2022-10-11T10:11:01.517Z,102377.56
2022-10-11T10:13:39.176Z,102371.91
2022-10-11T10:16:11.693Z,102374.28
2022-10-11T10:18:50.306Z,102387.97
2022-10-11T10:21:28.681Z,102383.47
2022-10-11T10:24:00.052Z,102386.25
2022-10-11T10:26:28.980Z,102378.13
2022-10-11T10:29:05.551Z,102378.28
2022-10-11T10:32:09.144Z,102371.31
2022-10-11T10:34:32.484Z,102374.78
2022-10-11T10:37:06.147Z,102372.66
2022-10-11T10:39:42.315Z,102371.34
2022-10-11T10:42:15.543Z,102366.97
2022-10-11T10:44:46.055Z,102364.56
2022-10-11T10:47:27.118Z,102362.09
2022-10-11T10:50:03.399Z,102365.50
2022-10-11T10:53:05.804Z,102360.72
2022-10-11T10:55:40.893Z,102362.00
2022-10-11T10:58:26.261Z,102361.56
2022-10-11T11:01:01.692Z,102363.97
2022-10-11T11:03:38.129Z,102372.72
2022-10-11T11:06:10.727Z,102370.75
2022-10-11T11:08:58.823Z,102374.75
2022-10-11T11:11:40.632Z,102367.81
2022-10-11T11:14:19.192Z,102367.06
2022-10-11T11:16:56.859Z,102364.56
2022-10-11T11:19:39.200Z,102360.41
2022-10-11T11:22:20.258Z,102357.59
2022-10-11T11:24:58.069Z,102359.78
2022-10-11T11:27:42.453Z,102353.75
2022-10-11T11:30:14.667Z,102355.75
2022-10-11T11:32:53.761Z,102351.97
2022-10-11T11:35:29.941Z,102348.06
2022-10-11T11:38:06.673Z,102339.63
2022-10-11T11:40:38.954Z,102339.81
2022-10-11T11:43:16.453Z,102332.13
2022-10-11T11:45:49.799Z,102332.81
2022-10-11T11:48:24.680Z,102325.47
2022-10-11T11:51:01.282Z,102332.16
2022-10-11T11:53:48.315Z,102331.81
2022-10-11T11:56:27.729Z,102320.41
2022-10-11T11:59:04.211Z,102323.56
2022-10-11T12:01:39.666Z,102325.22
2022-10-11T12:04:15.058Z,102320.03
2022-10-11T12:06:58.119Z,102315.03
2022-10-11T12:09:36.056Z,102314.97
2022-10-11T12:12:07.872Z,102317.06
2022-10-11T12:14:39.806Z,102308.88
2022-10-11T12:17:15.719Z,102307.91
2022-10-11T12:20:00.552Z,102313.50
2022-10-11T12:22:42.776Z,102310.47
2022-10-11T12:25:36.944Z,102308.16
2022-10-11T12:28:44.189Z,102302.25
2022-10-11T12:31:21.396Z,102300.19
2022-10-11T12:33:52.915Z,102293.50
2022-10-11T12:36:36.846Z,102298.00
2022-10-11T12:39:44.800Z,102291.59
2022-10-11T12:42:30.127Z,102291.94
2022-10-11T12:45:30.214Z,102279.47
2022-10-11T12:48:19.365Z,102281.28
2022-10-11T12:51:02.142Z,102280.28
2022-10-11T12:54:25.025Z,102275.81
2022-10-11T12:56:58.289Z,102284.94
2022-10-11T12:59:28.212Z,102273.69
2022-10-11T13:01:59.069Z,102274.59
2022-10-11T13:04:29.933Z,102270.66
2022-10-11T13:07:06.569Z,102272.84
2022-10-11T13:09:39.147Z,102278.59
2022-10-11T13:12:10.704Z,102274.66
2022-10-11T13:14:45.637Z,102268.59
2022-10-11T13:17:20.507Z,102270.03
2022-10-11T13:19:59.728Z,102266.69
2022-10-11T13:22:28.965Z,102272.19
2022-10-11T13:24:57.976Z,102261.00
2022-10-11T13:27:28.568Z,102268.78
2022-10-11T13:30:06.829Z,102263.56
2022-10-11T13:32:37.875Z,102259.50
2022-10-11T13:35:14.539Z,102261.84
2022-10-11T13:37:47.285Z,102262.06
2022-10-11T13:40:17.654Z,102252.22
2022-10-11T13:42:48.458Z,102249.72
2022-10-11T13:45:21.038Z,102251.66
2022-10-11T13:47:50.674Z,102252.88
2022-10-11T13:50:31.669Z,102243.06
2022-10-11T13:53:02.482Z,102244.34
2022-10-11T13:55:34.419Z,102249.22
2022-10-11T13:58:11.223Z,102233.63
2022-10-11T14:00:56.005Z,102239.06
2022-10-11T14:03:27.702Z,102237.09
2022-10-11T14:05:57.706Z,102239.13
2022-10-11T14:08:31.825Z,102237.53
2022-10-11T14:11:06.042Z,102236.63
2022-10-11T14:13:38.677Z,102235.28
2022-10-11T14:16:10.454Z,102241.69
2022-10-11T14:18:44.121Z,102234.19
2022-10-11T14:21:33.792Z,102239.25
2022-10-11T14:24:05.057Z,102239.66
2022-10-11T14:26:36.881Z,102229.63
2022-10-11T14:29:09.215Z,102235.91
2022-10-11T14:31:41.932Z,102238.78
2022-10-11T14:34:16.704Z,102241.44
2022-10-11T14:36:45.203Z,102231.94
2022-10-11T14:39:17.722Z,102230.63
2022-10-11T14:41:47.148Z,102227.31
2022-10-11T14:44:16.776Z,102227.91
2022-10-11T14:46:48.407Z,102229.25
2022-10-11T14:49:18.627Z,102225.72
2022-10-11T14:51:48.857Z,102225.91
2022-10-11T14:54:19.872Z,102228.31
2022-10-11T14:56:48.670Z,102216.63
2022-10-11T14:59:19.135Z,102221.03
2022-10-11T15:01:51.850Z,102224.84
2022-10-11T15:04:20.747Z,102218.78
2022-10-11T15:06:49.825Z,102217.19
2022-10-11T15:09:20.793Z,102218.63
2022-10-11T15:11:50.225Z,102213.38
2022-10-11T15:14:18.908Z,102206.59
2022-10-11T15:16:48.829Z,102208.31
2022-10-11T15:19:19.295Z,102201.06
2022-10-11T15:21:48.059Z,102199.38
2022-10-11T15:24:19.879Z,102203.97
2022-10-11T15:26:49.375Z,102204.84
2022-10-11T15:29:19.205Z,102199.06
2022-10-11T15:31:49.936Z,102199.88
2022-10-11T15:34:18.717Z,102198.63
2022-10-11T15:36:49.998Z,102195.84
2022-10-11T15:39:27.623Z,102198.41
2022-10-11T15:41:56.268Z,102196.34
2022-10-11T15:44:24.767Z,102202.97
2022-10-11T15:46:54.707Z,102202.88
2022-10-11T15:49:23.198Z,102205.00
2022-10-11T15:51:51.704Z,102205.47
2022-10-11T15:54:20.145Z,102200.16
2022-10-11T15:56:48.616Z,102200.50
2022-10-11T15:59:17.075Z,102198.38
2022-10-11T16:01:46.695Z,102207.31
2022-10-11T16:04:16.559Z,102207.34
2022-10-11T16:06:45.041Z,102196.00
2022-10-11T16:09:13.516Z,102203.53
2022-10-11T16:11:42.010Z,102197.00
2022-10-11T16:14:10.460Z,102198.84
2022-10-11T16:16:38.940Z,102194.31
2022-10-11T16:19:07.392Z,102186.22
2022-10-11T16:21:37.242Z,102187.47
2022-10-11T16:24:05.904Z,102187.69
2022-10-11T16:26:34.539Z,102184.06
2022-10-11T16:29:03.029Z,102196.97
2022-10-11T16:31:31.503Z,102188.69
2022-10-11T16:33:59.960Z,102194.63
2022-10-11T16:36:36.390Z,102192.91
2022-10-11T16:39:09.681Z,102191.00
2022-10-11T16:41:38.481Z,102193.59
2022-10-11T16:44:07.455Z,102194.69
2022-10-11T16:46:36.085Z,102191.28
2022-10-11T16:49:05.173Z,102194.91
2022-10-11T16:51:33.700Z,102197.53
2022-10-11T16:54:02.613Z,102199.44
2022-10-11T16:56:37.356Z,102194.50
2022-10-11T17:01:38.876Z,102199.09
2022-10-11T17:04:07.654Z,102198.63
2022-10-11T17:06:36.155Z,102200.44
2022-10-11T17:09:04.907Z,102199.44
2022-10-11T17:11:34.825Z,102199.25
2022-10-11T17:14:05.152Z,102207.44
2022-10-11T17:16:33.729Z,102204.81
2022-10-11T17:19:02.465Z,102198.91
2022-10-11T17:21:30.993Z,102205.72
2022-10-11T17:23:59.476Z,102203.22
2022-10-11T17:26:28.590Z,102200.22
2022-10-11T17:29:00.347Z,102201.94
2022-10-11T17:31:30.170Z,102205.56
2022-10-11T17:34:00.931Z,102201.97
2022-10-11T17:36:32.046Z,102207.00
2022-10-11T17:39:01.883Z,102199.81
2022-10-11T17:41:32.254Z,102204.72
2022-10-11T17:44:03.147Z,102196.19
2022-10-11T17:46:32.930Z,102204.97
2022-10-11T17:49:04.697Z,102199.00
2022-10-11T17:51:33.353Z,102203.72
2022-10-11T17:54:01.849Z,102200.94
2022-10-11T17:56:36.589Z,102196.91
2022-10-11T17:59:08.263Z,102201.00
2022-10-11T18:01:36.929Z,102193.50
2022-10-11T18:04:07.005Z,102196.50
2022-10-11T18:06:39.577Z,102201.44
2022-10-11T18:09:08.416Z,102193.34
2022-10-11T18:11:37.377Z,102198.25
2022-10-11T18:14:07.388Z,102189.91
2022-10-11T18:16:37.755Z,102205.28
2022-10-11T18:19:08.763Z,102197.81
2022-10-11T18:21:37.788Z,102203.56
2022-10-11T18:24:10.732Z,102202.97
2022-10-11T18:26:39.948Z,102199.56
2022-10-11T18:29:10.058Z,102201.47
2022-10-11T18:31:38.541Z,102207.47
2022-10-11T18:34:08.420Z,102206.63
2022-10-11T18:36:37.212Z,102210.03
2022-10-11T18:39:07.710Z,102203.44
2022-10-11T18:41:38.905Z,102201.91
2022-10-11T18:44:10.941Z,102202.38
2022-10-11T18:46:39.538Z,102196.66
2022-10-11T18:49:08.654Z,102200.03
2022-10-11T18:51:38.994Z,102197.69
2022-10-11T18:54:08.765Z,102196.25
2022-10-11T18:56:37.837Z,102201.38
2022-10-11T18:59:07.837Z,102194.09
2022-10-11T19:01:40.028Z,102199.66
2022-10-11T19:04:10.152Z,102193.50
2022-10-11T19:06:40.880Z,102186.03
2022-10-11T19:09:11.756Z,102182.19
2022-10-11T19:11:41.220Z,102193.97
2022-10-11T19:14:12.151Z,102191.59
2022-10-11T19:16:45.317Z,102188.41
2022-10-11T19:19:14.358Z,102183.91
2022-10-11T19:21:43.182Z,102195.03
2022-10-11T19:24:11.735Z,102191.84
2022-10-11T19:26:41.943Z,102192.88
2022-10-11T19:29:14.640Z,102202.50
2022-10-11T19:31:46.498Z,102191.44
2022-10-11T19:34:15.357Z,102189.72
2022-10-11T19:36:44.152Z,102196.56
2022-10-11T19:39:14.730Z,102184.19
2022-10-11T19:41:44.344Z,102187.19
2022-10-11T19:44:13.599Z,102188.91
2022-10-11T19:46:52.053Z,102186.56
2022-10-11T19:49:23.892Z,102192.53
2022-10-11T19:51:52.812Z,102178.94
2022-10-11T19:54:21.384Z,102185.50
2022-10-11T19:56:49.886Z,102185.72
2022-10-11T19:59:18.669Z,102183.81
2022-10-11T20:01:52.621Z,102191.75
2022-10-11T20:04:47.457Z,102193.88
2022-10-11T20:07:10.895Z,102195.38
2022-10-11T20:09:39.400Z,102192.59
2022-10-11T20:12:08.352Z,102183.84
2022-10-11T20:14:36.953Z,102194.94
2022-10-11T20:17:06.819Z,102190.25
2022-10-11T20:19:35.687Z,102190.06
2022-10-11T20:22:04.256Z,102195.63
2022-10-11T20:24:34.471Z,102190.06
2022-10-11T20:27:04.596Z,102184.09
2022-10-11T20:29:33.131Z,102186.66
2022-10-11T20:32:01.637Z,102174.72
2022-10-11T20:34:31.454Z,102181.56
2022-10-11T20:36:59.908Z,102182.41
2022-10-11T20:39:28.553Z,102184.56
2022-10-11T20:41:57.000Z,102178.78
2022-10-11T20:44:25.685Z,102185.59
2022-10-11T20:46:54.162Z,102179.66
2022-10-11T20:49:22.729Z,102189.69
2022-10-11T20:51:52.579Z,102186.25
2022-10-11T20:54:21.227Z,102184.56
2022-10-11T20:56:49.684Z,102182.66
2022-10-11T20:59:18.292Z,102182.41
2022-10-11T21:01:46.826Z,102181.41
2022-10-11T21:04:19.665Z,102179.25
2022-10-11T21:06:48.680Z,102188.41
2022-10-11T21:09:19.159Z,102176.69
2022-10-11T21:11:47.769Z,102175.63
2022-10-11T21:14:16.277Z,102173.28
2022-10-11T21:16:44.846Z,102175.44
2022-10-11T21:19:16.003Z,102172.03
2022-10-11T21:21:50.902Z,102171.38
2022-10-11T21:24:23.577Z,102168.84
2022-10-11T21:26:54.045Z,102166.06
2022-10-11T21:29:25.473Z,102162.22
2022-10-11T21:31:53.941Z,102160.09
2022-10-11T21:34:22.406Z,102168.63
2022-10-11T21:36:50.871Z,102158.41
2022-10-11T21:39:19.350Z,102164.97
2022-10-11T21:41:49.187Z,102164.97
2022-10-11T21:44:17.757Z,102158.81
2022-10-11T21:49:34.681Z,102165.41
2022-10-11T21:52:03.554Z,102166.72
2022-10-11T21:54:32.015Z,102170.75
2022-10-11T21:57:01.867Z,102169.91
2022-10-11T21:59:30.338Z,102173.72
2022-10-11T22:02:01.906Z,102174.38
2022-10-11T22:04:30.761Z,102179.25
2022-10-11T22:06:59.365Z,102178.84
2022-10-11T22:09:29.763Z,102173.09
2022-10-11T22:11:58.236Z,102170.09
2022-10-11T22:14:28.284Z,102168.00
2022-10-11T22:16:56.803Z,102165.41
2022-10-11T22:19:25.392Z,102165.63
2022-10-11T22:21:53.863Z,102164.38
2022-10-11T22:24:22.368Z,102162.88
2022-10-11T22:26:50.849Z,102155.84
2022-10-11T22:29:19.337Z,102158.59
2022-10-11T22:31:49.159Z,102157.75
2022-10-11T22:34:17.751Z,102150.94
2022-10-11T22:36:46.243Z,102152.66
2022-10-11T22:39:14.712Z,102150.09
2022-10-11T22:41:43.151Z,102152.44
2022-10-11T22:44:12.788Z,102152.66
2022-10-11T22:46:41.251Z,102148.81
2022-10-11T22:49:11.094Z,102152.22
2022-10-11T22:51:39.606Z,102155.22
2022-10-11T22:54:08.087Z,102153.72
2022-10-11T22:56:36.544Z,102148.81
2022-10-11T22:59:05.118Z,102154.78
2022-10-11T23:01:33.707Z,102143.91
2022-10-11T23:04:02.243Z,102146.03
2022-10-11T23:06:32.144Z,102151.38
2022-10-11T23:09:00.626Z,102141.16
2022-10-11T23:11:29.100Z,102146.25
2022-10-11T23:13:57.572Z,102143.06
2022-10-11T23:16:26.066Z,102145.19
2022-10-11T23:18:55.249Z,102139.44
2022-10-11T23:21:23.912Z,102148.19
2022-10-11T23:23:55.403Z,102143.50
2022-10-11T23:26:23.879Z,102145.00
2022-10-11T23:28:56.102Z,102152.03
2022-10-11T23:31:24.577Z,102149.84
2022-10-11T23:33:54.456Z,102144.94
2022-10-11T23:36:25.215Z,102146.47
2022-10-11T23:38:56.625Z,102149.66
2022-10-11T23:41:26.549Z,102144.84
2022-10-11T23:43:55.084Z,102149.56
2022-10-11T23:46:23.624Z,102150.66
2022-10-11T23:48:52.463Z,102153.88
2022-10-11T23:51:21.214Z,102146.63
2022-10-11T23:53:49.731Z,102145.50
2022-10-11T23:56:19.635Z,102154.66
2022-10-11T23:58:48.112Z,102156.63
